createdAt,value
2019-02-24T00:00:44.942Z,32.40
2019-02-24T00:01:58.433Z,30.00
2019-02-24T00:03:27.037Z,30.13
2019-02-24T00:04:36.918Z,29.40
2019-02-24T00:05:46.967Z,29.00
2019-02-24T00:07:04.558Z,30.23
2019-02-24T00:08:15.932Z,31.73
2019-02-24T00:09:23.017Z,30.80
2019-02-24T00:10:28.438Z,28.87
2019-02-24T00:11:33.977Z,29.27
2019-02-24T00:12:39.466Z,29.10
2019-02-24T00:13:44.943Z,30.23
2019-02-24T00:14:50.378Z,30.20
2019-02-24T00:15:55.733Z,27.23
2019-02-24T00:17:01.247Z,30.50
2019-02-24T00:18:07.855Z,33.10
2019-02-24T00:19:13.427Z,26.33
2019-02-24T00:20:20.574Z,29.17
2019-02-24T00:21:26.159Z,28.03
2019-02-24T00:22:31.646Z,31.60
2019-02-24T00:23:42.506Z,29.40
2019-02-24T00:24:52.906Z,27.50
2019-02-24T00:26:04.747Z,31.53
2019-02-24T00:29:30.991Z,29.23
2019-02-24T00:30:52.029Z,28.20
2019-02-24T00:32:10.894Z,28.13
2019-02-24T00:33:18.843Z,31.37
2019-02-24T00:34:35.432Z,31.43
2019-02-24T00:35:43.361Z,29.07
2019-02-24T00:36:57.113Z,29.17
2019-02-24T00:38:03.835Z,30.50
2019-02-24T00:39:15.668Z,31.77
2019-02-24T00:40:23.638Z,32.43
2019-02-24T00:41:29.329Z,32.07
2019-02-24T00:42:34.658Z,33.20
2019-02-24T00:43:40.366Z,33.23
2019-02-24T00:44:46.268Z,31.83
2019-02-24T00:45:51.766Z,35.67
2019-02-24T00:47:01.181Z,32.47
2019-02-24T00:48:08.748Z,31.83
2019-02-24T00:49:13.969Z,32.60
2019-02-24T00:50:19.275Z,33.07
2019-02-24T00:51:24.762Z,32.33
2019-02-24T00:52:30.313Z,32.33
2019-02-24T00:53:35.726Z,33.37
2019-02-24T00:54:41.086Z,33.63
2019-02-24T00:55:46.474Z,29.70
2019-02-24T00:56:51.702Z,30.67
2019-02-24T00:57:57.003Z,29.13
2019-02-24T00:59:02.277Z,31.30
2019-02-24T01:00:08.565Z,31.47
2019-02-24T01:01:15.413Z,29.90
2019-02-24T01:02:20.662Z,32.47
2019-02-24T01:03:25.838Z,33.70
2019-02-24T01:04:31.092Z,29.13
2019-02-24T01:05:36.372Z,33.60
2019-02-24T01:06:41.579Z,32.57
2019-02-24T01:07:46.942Z,33.87
2019-02-24T01:08:52.248Z,32.43
2019-02-24T01:09:57.522Z,33.83
2019-02-24T01:11:02.831Z,32.03
2019-02-24T01:12:08.101Z,30.77
2019-02-24T01:13:13.336Z,32.30
2019-02-24T01:14:18.645Z,31.53
2019-02-24T01:15:23.972Z,35.87
2019-02-24T01:16:33.006Z,32.90
2019-02-24T01:17:38.193Z,34.40
2019-02-24T01:18:43.490Z,33.13
2019-02-24T01:19:59.424Z,32.10
2019-02-24T01:21:07.589Z,31.13
2019-02-24T01:22:12.851Z,33.67
2019-02-24T01:23:18.145Z,32.20
2019-02-24T01:24:23.386Z,29.13
2019-02-24T01:25:28.753Z,32.00
2019-02-24T01:26:34.060Z,33.17
2019-02-24T01:27:39.317Z,34.63
2019-02-24T01:28:44.520Z,34.80
2019-02-24T01:29:49.879Z,32.40
2019-02-24T01:30:55.162Z,32.73
2019-02-24T01:32:00.429Z,31.10
2019-02-24T01:33:05.682Z,28.47
2019-02-24T01:34:11.249Z,34.20
2019-02-24T01:35:16.607Z,31.30
2019-02-24T01:36:22.956Z,31.17
2019-02-24T01:37:28.286Z,31.70
2019-02-24T01:38:33.634Z,32.77
2019-02-24T01:39:38.946Z,32.73
2019-02-24T01:40:44.227Z,35.07
2019-02-24T01:41:49.544Z,33.80
2019-02-24T01:42:54.942Z,29.37
2019-02-24T01:44:00.235Z,32.67
2019-02-24T01:45:05.524Z,32.07
2019-02-24T01:46:10.841Z,30.80
2019-02-24T01:47:16.119Z,32.63
2019-02-24T01:48:21.297Z,33.90
2019-02-24T01:49:26.531Z,29.83
2019-02-24T01:50:31.807Z,32.90
2019-02-24T01:51:39.202Z,34.33
2019-02-24T01:52:44.281Z,31.30
2019-02-24T01:53:49.642Z,31.53
2019-02-24T01:55:01.764Z,31.73
2019-02-24T01:56:07.047Z,34.00
2019-02-24T01:57:12.217Z,31.73
2019-02-24T01:58:24.006Z,31.17
2019-02-24T01:59:30.352Z,30.60
2019-02-24T02:00:38.477Z,31.43
2019-02-24T02:01:43.791Z,31.50
2019-02-24T02:02:49.091Z,32.20
2019-02-24T02:03:54.366Z,31.43
2019-02-24T02:04:59.649Z,34.67
2019-02-24T02:06:04.987Z,33.07
2019-02-24T02:07:10.172Z,30.37
2019-02-24T02:08:16.639Z,31.80
2019-02-24T02:09:21.975Z,30.97
2019-02-24T02:10:29.877Z,32.47
2019-02-24T02:11:35.210Z,29.75
2019-02-24T02:12:40.493Z,34.98
2019-02-24T02:13:46.912Z,33.83
2019-02-24T02:14:52.492Z,32.97
2019-02-24T02:15:57.860Z,33.20
2019-02-24T02:17:04.413Z,31.77
2019-02-24T02:18:09.941Z,33.10
2019-02-24T02:19:23.007Z,29.97
2019-02-24T02:20:28.216Z,32.30
2019-02-24T02:21:36.286Z,33.30
2019-02-24T02:22:41.523Z,30.37
2019-02-24T02:23:46.767Z,33.87
2019-02-24T02:24:52.214Z,34.37
2019-02-24T02:26:01.982Z,32.05
2019-02-24T02:27:07.318Z,35.10
2019-02-24T02:28:13.088Z,35.77
2019-02-24T02:29:18.388Z,32.75
2019-02-24T02:30:23.719Z,36.53
2019-02-24T02:31:29.026Z,36.30
2019-02-24T02:32:34.307Z,35.37
2019-02-24T02:33:39.740Z,33.92
2019-02-24T02:34:45.686Z,38.57
2019-02-24T02:35:51.035Z,36.83
2019-02-24T02:36:56.430Z,31.63
2019-02-24T02:38:01.689Z,36.93
2019-02-24T02:39:10.111Z,32.70
2019-02-24T02:40:15.452Z,39.13
2019-02-24T02:41:21.621Z,34.10
2019-02-24T02:42:26.925Z,36.68
2019-02-24T02:43:32.299Z,38.53
2019-02-24T02:44:37.518Z,34.87
2019-02-24T02:45:42.886Z,34.63
2019-02-24T02:46:48.333Z,37.47
2019-02-24T02:47:53.727Z,33.18
2019-02-24T02:48:59.099Z,31.20
2019-02-24T02:50:07.505Z,36.23
2019-02-24T02:51:13.216Z,38.05
2019-02-24T02:52:20.503Z,37.13
2019-02-24T02:53:25.885Z,35.63
2019-02-24T02:54:34.382Z,33.93
2019-02-24T02:55:39.815Z,38.77
2019-02-24T02:56:45.164Z,38.27
2019-02-24T02:57:50.600Z,37.25
2019-02-24T02:58:55.895Z,37.15
2019-02-24T03:00:01.266Z,40.03
2019-02-24T03:01:08.057Z,35.83
2019-02-24T03:02:13.490Z,37.23
2019-02-24T03:03:18.824Z,36.03
2019-02-24T03:04:24.102Z,34.27
2019-02-24T03:05:29.308Z,35.75
2019-02-24T03:06:59.672Z,34.10
2019-02-24T03:08:07.957Z,36.60
2019-02-24T03:09:13.319Z,36.83
2019-02-24T03:10:18.590Z,34.83
2019-02-24T03:11:23.994Z,37.30
2019-02-24T03:12:34.114Z,35.30
2019-02-24T03:13:38.957Z,37.83
2019-02-24T03:14:44.232Z,36.30
2019-02-24T03:15:49.543Z,35.13
2019-02-24T03:16:55.077Z,34.90
2019-02-24T03:18:00.436Z,37.42
2019-02-24T03:19:07.506Z,34.13
2019-02-24T03:20:13.212Z,34.30
2019-02-24T03:21:19.843Z,34.80
2019-02-24T03:22:36.308Z,38.07
2019-02-24T03:23:43.367Z,35.50
2019-02-24T03:24:48.982Z,36.70
2019-02-24T03:26:01.751Z,35.63
2019-02-24T03:27:07.319Z,36.93
2019-02-24T03:28:12.867Z,35.20
2019-02-24T03:29:18.419Z,36.83
2019-02-24T03:30:25.560Z,34.78
2019-02-24T03:31:30.855Z,38.63
2019-02-24T03:32:36.229Z,36.03
2019-02-24T03:33:44.913Z,33.60
2019-02-24T03:34:49.159Z,36.73
2019-02-24T03:35:54.614Z,35.20
2019-02-24T03:37:00.009Z,34.00
2019-02-24T03:38:05.372Z,32.43
2019-02-24T03:39:10.548Z,34.40
2019-02-24T03:40:15.884Z,36.87
2019-02-24T03:41:21.213Z,34.43
2019-02-24T03:42:26.571Z,34.25
2019-02-24T03:43:31.900Z,32.73
2019-02-24T03:44:37.262Z,36.73
2019-02-24T03:45:43.596Z,34.88
2019-02-24T03:46:48.849Z,34.80
2019-02-24T03:47:54.101Z,34.80
2019-02-24T03:48:59.206Z,34.63
2019-02-24T03:50:04.978Z,33.77
2019-02-24T03:51:10.199Z,34.60
2019-02-24T03:52:15.482Z,33.57
2019-02-24T03:53:20.855Z,33.63
2019-02-24T03:54:26.186Z,34.70
2019-02-24T03:55:31.479Z,30.73
2019-02-24T03:56:36.822Z,37.37
2019-02-24T03:57:43.136Z,33.67
2019-02-24T03:58:48.462Z,33.87
2019-02-24T03:59:53.868Z,35.50
2019-02-24T04:00:59.199Z,34.87
2019-02-24T04:02:04.424Z,32.67
2019-02-24T04:03:09.805Z,38.07
2019-02-24T04:04:15.149Z,32.63
2019-02-24T04:05:20.479Z,34.40
2019-02-24T04:06:25.753Z,33.80
2019-02-24T04:07:31.100Z,36.10
2019-02-24T04:08:36.354Z,31.83
2019-02-24T04:09:41.643Z,35.77
2019-02-24T04:10:46.907Z,35.10
2019-02-24T04:11:52.105Z,32.57
2019-02-24T04:12:57.345Z,35.68
2019-02-24T04:14:02.636Z,33.17
2019-02-24T04:15:07.969Z,30.73
2019-02-24T04:16:13.242Z,33.37
2019-02-24T04:17:18.439Z,33.67
2019-02-24T04:18:23.696Z,34.03
2019-02-24T04:19:28.993Z,35.27
2019-02-24T04:20:34.296Z,35.20
2019-02-24T04:21:39.555Z,32.13
2019-02-24T04:22:44.720Z,31.52
2019-02-24T04:23:50.021Z,34.70
2019-02-24T04:24:55.341Z,33.53
2019-02-24T04:26:00.586Z,36.53
2019-02-24T04:27:05.871Z,31.67
2019-02-24T04:28:12.218Z,32.07
2019-02-24T04:29:24.579Z,29.90
2019-02-24T04:30:24.420Z,28.90
2019-02-24T04:31:29.705Z,36.13
2019-02-24T04:32:35.022Z,34.00
2019-02-24T04:33:40.136Z,35.77
2019-02-24T04:34:45.384Z,31.30
2019-02-24T04:35:50.665Z,33.07
2019-02-24T04:36:55.857Z,34.27
2019-02-24T04:38:01.076Z,33.30
2019-02-24T04:39:06.767Z,32.57
2019-02-24T04:40:12.074Z,31.10
2019-02-24T04:41:17.379Z,34.23
2019-02-24T04:42:22.654Z,32.20
2019-02-24T04:43:27.948Z,33.40
2019-02-24T04:44:33.262Z,30.87
2019-02-24T04:45:38.577Z,32.63
2019-02-24T04:46:43.778Z,31.43
2019-02-24T04:47:49.007Z,34.23
2019-02-24T04:48:54.341Z,34.40
2019-02-24T04:49:59.571Z,33.97
2019-02-24T04:51:04.849Z,32.97
2019-02-24T04:52:10.176Z,32.60
2019-02-24T04:53:15.548Z,31.17
2019-02-24T04:54:20.919Z,35.70
2019-02-24T04:55:26.209Z,31.50
2019-02-24T04:56:31.480Z,36.00
2019-02-24T04:57:36.767Z,34.97
2019-02-24T04:58:43.063Z,31.70
2019-02-24T04:59:48.276Z,33.53
2019-02-24T05:00:53.551Z,32.90
2019-02-24T05:01:58.792Z,30.35
2019-02-24T05:03:04.103Z,33.90
2019-02-24T05:04:09.397Z,33.57
2019-02-24T05:05:18.106Z,34.63
2019-02-24T05:06:23.255Z,35.47
2019-02-24T05:07:28.550Z,30.57
2019-02-24T05:08:33.813Z,33.07
2019-02-24T05:09:39.023Z,30.83
2019-02-24T05:10:44.196Z,34.07
2019-02-24T05:11:49.354Z,32.83
2019-02-24T05:12:54.555Z,32.63
2019-02-24T05:13:59.898Z,34.70
2019-02-24T05:15:05.811Z,32.30
2019-02-24T05:16:11.138Z,35.43
2019-02-24T05:17:16.535Z,32.40
2019-02-24T05:18:21.833Z,31.10
2019-02-24T05:19:27.186Z,31.50
2019-02-24T05:20:32.478Z,36.30
2019-02-24T05:21:37.808Z,33.70
2019-02-24T05:22:43.088Z,30.88
2019-02-24T05:23:48.413Z,33.60
2019-02-24T05:24:53.737Z,33.40
2019-02-24T05:25:59.025Z,33.93
2019-02-24T05:27:04.322Z,33.25
2019-02-24T05:28:09.671Z,33.00
2019-02-24T05:29:14.982Z,32.38
2019-02-24T05:30:20.312Z,33.33
2019-02-24T05:31:25.606Z,37.37
2019-02-24T05:32:30.861Z,31.50
2019-02-24T05:33:36.164Z,35.37
2019-02-24T05:34:41.497Z,34.85
2019-02-24T05:35:46.718Z,31.65
2019-02-24T05:36:51.982Z,33.58
2019-02-24T05:37:57.285Z,32.13
2019-02-24T05:39:02.610Z,38.08
2019-02-24T05:40:09.259Z,31.80
2019-02-24T05:41:14.494Z,31.80
2019-02-24T05:42:19.874Z,31.42
2019-02-24T05:43:25.173Z,32.93
2019-02-24T05:44:30.429Z,33.97
2019-02-24T05:45:35.787Z,35.90
2019-02-24T05:46:41.023Z,33.47
2019-02-24T05:47:46.306Z,30.77
2019-02-24T05:48:51.580Z,30.65
2019-02-24T05:49:56.884Z,35.95
2019-02-24T05:51:02.148Z,35.57
2019-02-24T05:52:07.473Z,35.48
2019-02-24T05:53:12.818Z,37.93
2019-02-24T05:54:18.154Z,29.48
2019-02-24T05:55:23.565Z,31.23
2019-02-24T05:56:28.888Z,32.03
2019-02-24T05:57:34.121Z,30.65
2019-02-24T05:58:39.354Z,30.75
2019-02-24T05:59:44.658Z,31.40
2019-02-24T06:00:49.965Z,34.80
2019-02-24T06:01:55.245Z,32.93
2019-02-24T06:03:00.497Z,32.42
2019-02-24T06:04:05.777Z,30.73
2019-02-24T06:05:11.088Z,32.33
2019-02-24T06:06:16.360Z,32.50
2019-02-24T06:07:21.678Z,34.73
2019-02-24T06:08:27.123Z,35.50
2019-02-24T06:09:32.416Z,32.17
2019-02-24T06:10:37.728Z,31.43
2019-02-24T06:11:42.914Z,34.27
2019-02-24T06:12:48.336Z,31.97
2019-02-24T06:13:53.721Z,33.80
2019-02-24T06:14:59.071Z,31.53
2019-02-24T06:16:04.318Z,35.58
2019-02-24T06:17:09.655Z,30.00
2019-02-24T06:18:14.939Z,37.13
2019-02-24T06:19:20.247Z,32.13
2019-02-24T06:20:25.626Z,32.53
2019-02-24T06:21:30.961Z,35.60
2019-02-24T06:22:36.316Z,33.42
2019-02-24T06:23:41.549Z,30.17
2019-02-24T06:24:46.926Z,32.17
2019-02-24T06:25:52.205Z,33.02
2019-02-24T06:26:57.401Z,35.23
2019-02-24T06:28:02.559Z,35.10
2019-02-24T06:29:07.910Z,35.73
2019-02-24T06:30:14.250Z,32.70
2019-02-24T06:31:19.456Z,34.67
2019-02-24T06:32:24.712Z,31.53
2019-02-24T06:33:29.973Z,36.50
2019-02-24T06:34:35.342Z,34.53
2019-02-24T06:35:40.654Z,33.83
2019-02-24T06:36:45.928Z,34.88
2019-02-24T06:37:51.276Z,31.90
2019-02-24T06:38:56.563Z,36.42
2019-02-24T06:40:01.899Z,32.93
2019-02-24T06:41:07.118Z,33.63
2019-02-24T06:42:12.436Z,33.88
2019-02-24T06:43:17.760Z,35.83
2019-02-24T06:44:23.236Z,32.88
2019-02-24T06:45:28.539Z,36.17
2019-02-24T06:46:33.767Z,35.75
2019-02-24T06:47:38.994Z,32.00
2019-02-24T06:48:44.409Z,33.70
2019-02-24T06:49:49.742Z,32.57
2019-02-24T06:51:06.840Z,36.48
2019-02-24T06:52:12.167Z,36.93
2019-02-24T06:53:17.325Z,32.88
2019-02-24T06:54:22.710Z,32.70
2019-02-24T06:55:27.805Z,34.10
2019-02-24T06:56:33.000Z,32.85
2019-02-24T06:57:38.521Z,31.90
2019-02-24T06:58:43.782Z,29.73
2019-02-24T06:59:49.984Z,35.20
2019-02-24T07:00:55.174Z,33.90
2019-02-24T07:02:00.424Z,33.88
2019-02-24T07:03:05.721Z,31.30
2019-02-24T07:04:11.039Z,30.20
2019-02-24T07:05:16.251Z,30.30
2019-02-24T07:06:21.797Z,33.80
2019-02-24T07:07:27.142Z,33.18
2019-02-24T07:08:32.412Z,32.85
2019-02-24T07:09:38.735Z,33.03
2019-02-24T07:10:44.103Z,29.83
2019-02-24T07:11:49.401Z,28.95
2019-02-24T07:12:54.688Z,31.10
2019-02-24T07:13:59.970Z,32.10
2019-02-24T07:15:05.445Z,31.10
2019-02-24T07:16:10.886Z,30.70
2019-02-24T07:17:16.152Z,32.07
2019-02-24T07:18:21.532Z,30.93
2019-02-24T07:19:26.864Z,30.07
2019-02-24T07:20:32.227Z,29.43
2019-02-24T07:21:37.600Z,29.93
2019-02-24T07:22:42.915Z,28.40
2019-02-24T07:23:48.198Z,30.87
2019-02-24T07:24:54.512Z,33.13
2019-02-24T07:26:00.937Z,31.83
2019-02-24T07:27:06.113Z,30.80
2019-02-24T07:28:11.298Z,30.03
2019-02-24T07:29:16.596Z,28.83
2019-02-24T07:30:23.755Z,32.53
2019-02-24T07:31:28.754Z,29.80
2019-02-24T07:32:34.063Z,32.03
2019-02-24T07:33:39.373Z,28.43
2019-02-24T07:34:44.622Z,26.43
2019-02-24T07:35:51.460Z,24.63
2019-02-24T07:36:56.722Z,27.10
2019-02-24T07:38:02.112Z,25.70
2019-02-24T07:39:07.732Z,26.30
2019-02-24T07:40:13.054Z,25.77
2019-02-24T07:41:18.343Z,26.93
2019-02-24T07:42:23.796Z,29.83
2019-02-24T07:43:29.104Z,28.70
2019-02-24T07:44:35.461Z,33.07
2019-02-24T07:45:40.764Z,27.30
2019-02-24T07:46:46.103Z,29.13
2019-02-24T07:47:51.430Z,26.80
2019-02-24T07:48:57.035Z,24.10
2019-02-24T07:50:06.215Z,27.87
2019-02-24T07:51:12.454Z,28.83
2019-02-24T07:52:20.403Z,26.83
2019-02-24T07:53:25.819Z,27.43
2019-02-24T07:54:31.112Z,27.30
2019-02-24T07:55:36.514Z,28.87
2019-02-24T07:56:41.947Z,27.90
2019-02-24T07:57:47.160Z,24.40
2019-02-24T07:58:52.521Z,26.00
2019-02-24T07:59:57.824Z,24.67
2019-02-24T08:01:04.794Z,26.37
2019-02-24T08:02:10.263Z,23.90
2019-02-24T08:03:15.662Z,27.53
2019-02-24T08:04:21.210Z,25.50
2019-02-24T08:05:26.556Z,28.83
2019-02-24T08:06:36.041Z,24.90
2019-02-24T08:07:43.082Z,24.57
2019-02-24T08:08:52.181Z,25.43
2019-02-24T08:09:57.336Z,23.70
2019-02-24T08:11:02.791Z,25.17
2019-02-24T08:12:08.294Z,22.30
2019-02-24T08:13:16.644Z,26.63
2019-02-24T08:14:22.302Z,24.83
2019-02-24T08:15:27.486Z,26.87
2019-02-24T08:16:32.826Z,23.53
2019-02-24T08:17:38.166Z,25.07
2019-02-24T08:18:49.249Z,23.07
2019-02-24T08:19:50.879Z,24.07
2019-02-24T08:20:56.339Z,23.07
2019-02-24T08:22:06.381Z,26.20
2019-02-24T08:23:11.744Z,22.07
2019-02-24T08:24:19.624Z,24.93
2019-02-24T08:25:24.938Z,20.47
2019-02-24T08:26:32.167Z,21.53
2019-02-24T08:27:37.637Z,22.73
2019-02-24T08:28:43.076Z,22.00
2019-02-24T08:29:48.402Z,25.57
2019-02-24T08:30:53.918Z,24.23
2019-02-24T08:31:59.274Z,24.23
2019-02-24T08:33:07.714Z,25.93
2019-02-24T08:34:12.974Z,20.50
2019-02-24T08:35:20.191Z,23.00
2019-02-24T08:36:25.622Z,22.23
2019-02-24T08:37:30.955Z,22.77
2019-02-24T08:38:40.475Z,21.00
2019-02-24T08:39:50.507Z,20.73
2019-02-24T08:40:55.797Z,21.63
2019-02-24T08:42:01.015Z,22.13
2019-02-24T08:43:06.444Z,20.90
2019-02-24T08:44:11.738Z,22.33
2019-02-24T08:45:16.934Z,20.83
2019-02-24T08:46:22.177Z,16.73
2019-02-24T08:47:31.481Z,18.17
2019-02-24T08:48:36.767Z,19.47
2019-02-24T08:49:42.025Z,17.93
2019-02-24T08:50:47.450Z,19.20
2019-02-24T08:51:53.812Z,17.93
2019-02-24T08:52:59.142Z,18.37
2019-02-24T08:54:06.482Z,16.57
2019-02-24T08:55:12.780Z,16.63
2019-02-24T08:56:18.063Z,18.40
2019-02-24T08:57:23.354Z,19.87
2019-02-24T08:58:31.688Z,21.97
2019-02-24T08:59:38.797Z,17.83
2019-02-24T09:00:50.962Z,16.87
2019-02-24T09:01:52.736Z,18.47
2019-02-24T09:02:58.178Z,16.30
2019-02-24T09:04:03.565Z,16.50
2019-02-24T09:05:08.751Z,20.60
2019-02-24T09:06:13.986Z,18.90
2019-02-24T09:07:19.455Z,16.70
2019-02-24T09:08:26.162Z,17.93
2019-02-24T09:09:31.877Z,17.17
2019-02-24T09:10:37.231Z,18.07
2019-02-24T09:11:42.694Z,17.33
2019-02-24T09:12:48.137Z,17.23
2019-02-24T09:13:53.412Z,16.23
2019-02-24T09:14:58.848Z,13.63
2019-02-24T09:16:04.360Z,16.57
2019-02-24T09:17:09.743Z,17.17
2019-02-24T09:18:15.292Z,16.37
2019-02-24T09:19:21.267Z,18.00
2019-02-24T09:20:27.411Z,18.57
2019-02-24T09:21:34.823Z,16.90
2019-02-24T09:23:23.858Z,17.23
2019-02-24T09:24:59.325Z,15.57
2019-02-24T09:28:33.374Z,16.20
2019-02-24T09:30:10.949Z,18.23
2019-02-24T09:31:35.009Z,17.60
2019-02-24T09:32:40.557Z,18.37
2019-02-24T09:33:46.074Z,19.40
2019-02-24T09:35:00.524Z,18.50
2019-02-24T09:36:07.849Z,18.17
2019-02-24T09:37:13.545Z,15.80
2019-02-24T09:38:19.143Z,16.10
2019-02-24T09:39:36.219Z,17.60
2019-02-24T09:40:43.143Z,18.00
2019-02-24T09:41:48.394Z,17.20
2019-02-24T09:43:02.333Z,21.13
2019-02-24T09:44:07.836Z,16.50
2019-02-24T09:45:15.166Z,16.67
2019-02-24T09:46:20.683Z,16.47
2019-02-24T09:47:26.119Z,17.77
2019-02-24T09:48:31.701Z,19.47
2019-02-24T09:49:37.165Z,15.80
2019-02-24T09:50:42.650Z,19.23
2019-02-24T09:51:47.981Z,16.07
2019-02-24T09:52:53.289Z,15.13
2019-02-24T09:53:58.736Z,14.93
2019-02-24T09:55:04.042Z,15.97
2019-02-24T09:56:09.266Z,16.43
2019-02-24T09:57:15.559Z,16.30
2019-02-24T09:58:21.156Z,15.07
2019-02-24T09:59:26.497Z,15.73
2019-02-24T10:00:31.809Z,14.90
2019-02-24T10:01:37.143Z,16.30
2019-02-24T10:02:42.500Z,14.63
2019-02-24T10:03:48.840Z,15.70
2019-02-24T10:04:54.061Z,16.33
2019-02-24T10:05:59.503Z,16.23
2019-02-24T10:07:04.910Z,14.40
2019-02-24T10:08:10.243Z,16.27
2019-02-24T10:09:15.539Z,14.33
2019-02-24T10:10:21.083Z,14.37
2019-02-24T10:11:26.486Z,11.70
2019-02-24T10:12:34.732Z,15.30
2019-02-24T10:13:40.060Z,14.60
2019-02-24T10:14:45.351Z,14.93
2019-02-24T10:15:50.957Z,13.80
2019-02-24T10:16:56.301Z,13.37
2019-02-24T10:18:06.600Z,14.30
2019-02-24T10:19:11.911Z,14.50
2019-02-24T10:20:17.620Z,12.63
2019-02-24T10:21:23.507Z,13.07
2019-02-24T10:22:28.771Z,13.80
2019-02-24T10:23:34.795Z,13.47
2019-02-24T10:24:40.181Z,11.33
2019-02-24T10:25:45.594Z,12.50
2019-02-24T10:26:50.824Z,11.00
2019-02-24T10:27:57.739Z,13.90
2019-02-24T10:29:03.172Z,13.93
2019-02-24T10:30:09.678Z,13.07
2019-02-24T10:31:19.931Z,13.93
2019-02-24T10:32:21.967Z,12.00
2019-02-24T10:33:27.272Z,14.13
2019-02-24T10:34:32.634Z,13.03
2019-02-24T10:35:37.937Z,13.57
2019-02-24T10:36:43.318Z,12.97
2019-02-24T10:37:48.956Z,12.93
2019-02-24T10:38:54.412Z,12.70
2019-02-24T10:39:59.775Z,10.20
2019-02-24T10:41:05.261Z,10.40
2019-02-24T10:42:10.672Z,10.33
2019-02-24T10:43:15.958Z,11.10
2019-02-24T10:44:21.353Z,11.80
2019-02-24T10:45:29.840Z,10.67
2019-02-24T10:46:35.153Z,10.67
2019-02-24T10:47:40.385Z,11.67
2019-02-24T10:48:45.656Z,10.23
2019-02-24T10:49:50.881Z,11.07
2019-02-24T10:50:56.867Z,11.10
2019-02-24T10:52:02.342Z,12.83
2019-02-24T10:53:07.766Z,12.33
2019-02-24T10:54:13.064Z,12.03
2019-02-24T10:55:19.500Z,14.20
2019-02-24T10:56:24.997Z,11.27
2019-02-24T10:57:30.379Z,10.13
2019-02-24T10:58:35.707Z,10.63
2019-02-24T10:59:41.034Z,13.03
2019-02-24T11:00:46.368Z,11.33
2019-02-24T11:01:51.802Z,12.97
2019-02-24T11:02:57.122Z,12.97
2019-02-24T11:04:02.279Z,13.73
2019-02-24T11:05:08.091Z,13.40
2019-02-24T11:06:13.615Z,11.73
2019-02-24T11:07:18.996Z,12.50
2019-02-24T11:08:24.313Z,12.33
2019-02-24T11:09:29.790Z,10.70
2019-02-24T11:10:35.057Z,11.77
2019-02-24T11:11:41.957Z,13.27
2019-02-24T11:12:47.545Z,12.90
2019-02-24T11:13:52.814Z,10.53
2019-02-24T11:14:58.103Z,12.10
2019-02-24T11:16:03.401Z,11.90
2019-02-24T11:17:08.798Z,10.90
2019-02-24T11:18:14.056Z,13.27
2019-02-24T11:19:19.387Z,12.23
2019-02-24T11:20:24.663Z,10.97
2019-02-24T11:21:30.131Z,13.67
2019-02-24T11:22:35.446Z,11.80
2019-02-24T11:23:40.795Z,12.37
2019-02-24T11:24:46.078Z,11.30
2019-02-24T11:25:51.351Z,12.40
2019-02-24T11:26:56.646Z,11.67
2019-02-24T11:28:01.996Z,9.60
2019-02-24T11:29:07.413Z,11.17
2019-02-24T11:30:12.898Z,11.77
2019-02-24T11:31:18.266Z,12.53
2019-02-24T11:32:23.668Z,11.20
2019-02-24T11:33:29.089Z,12.27
2019-02-24T11:34:36.037Z,10.90
2019-02-24T11:35:44.190Z,10.03
2019-02-24T11:36:49.649Z,11.80
2019-02-24T11:37:55.156Z,11.93
2019-02-24T11:39:00.578Z,9.17
2019-02-24T11:40:08.998Z,10.20
2019-02-24T11:41:14.495Z,13.83
2019-02-24T11:42:20.923Z,9.77
2019-02-24T11:43:27.406Z,10.83
2019-02-24T11:44:36.687Z,11.70
2019-02-24T11:45:43.260Z,9.70
2019-02-24T11:46:48.626Z,9.47
2019-02-24T11:47:55.816Z,10.63
2019-02-24T11:49:01.130Z,9.53
2019-02-24T11:50:07.549Z,10.50
2019-02-24T11:51:15.542Z,10.10
2019-02-24T11:52:20.786Z,9.50
2019-02-24T11:53:26.143Z,10.80
2019-02-24T11:54:31.517Z,9.87
2019-02-24T11:55:36.984Z,9.70
2019-02-24T11:56:42.241Z,9.17
2019-02-24T11:57:47.595Z,9.40
2019-02-24T11:58:52.903Z,10.43
2019-02-24T11:59:58.150Z,9.57
2019-02-24T12:01:03.382Z,9.37
2019-02-24T12:02:08.771Z,8.70
2019-02-24T12:03:14.111Z,15.40
2019-02-24T12:04:20.547Z,11.03
2019-02-24T12:05:25.958Z,8.47
2019-02-24T12:06:31.230Z,8.37
2019-02-24T12:07:38.764Z,8.00
2019-02-24T12:08:44.096Z,7.90
2019-02-24T12:09:49.763Z,8.83
2019-02-24T12:10:55.064Z,9.23
2019-02-24T12:12:00.272Z,9.97
2019-02-24T12:13:05.520Z,8.97
2019-02-24T12:14:10.819Z,8.43
2019-02-24T12:15:16.289Z,8.60
2019-02-24T12:16:21.550Z,9.57
2019-02-24T12:17:26.852Z,10.63
2019-02-24T12:18:32.181Z,8.87
2019-02-24T12:19:37.391Z,7.83
2019-02-24T12:20:42.690Z,11.70
2019-02-24T12:21:48.079Z,7.60
2019-02-24T12:22:55.266Z,7.43
2019-02-24T12:24:00.836Z,8.03
2019-02-24T12:25:07.286Z,6.90
2019-02-24T12:26:12.758Z,7.50
2019-02-24T12:27:18.048Z,8.07
2019-02-24T12:28:23.303Z,7.27
2019-02-24T12:29:28.529Z,7.43
2019-02-24T12:30:33.882Z,7.23
2019-02-24T12:31:39.165Z,7.63
2019-02-24T12:32:44.605Z,8.80
2019-02-24T12:33:50.140Z,8.13
2019-02-24T12:34:55.744Z,7.07
2019-02-24T12:36:01.060Z,8.23
2019-02-24T12:37:06.589Z,7.47
2019-02-24T12:38:14.303Z,6.17
2019-02-24T12:39:20.384Z,7.13
2019-02-24T12:40:25.817Z,6.13
2019-02-24T12:41:31.481Z,6.87
2019-02-24T12:42:36.966Z,6.23
2019-02-24T12:43:42.245Z,6.43
2019-02-24T12:44:47.632Z,7.30
2019-02-24T12:45:52.842Z,5.17
2019-02-24T12:47:00.426Z,6.27
2019-02-24T12:48:06.950Z,5.77
2019-02-24T12:49:12.648Z,7.40
2019-02-24T12:50:18.203Z,6.07
2019-02-24T12:51:23.559Z,4.97
2019-02-24T12:52:28.715Z,5.37
2019-02-24T12:53:34.087Z,5.07
2019-02-24T12:54:39.308Z,6.87
2019-02-24T12:55:44.660Z,6.10
2019-02-24T12:56:49.858Z,6.63
2019-02-24T12:57:55.458Z,5.73
2019-02-24T12:59:00.751Z,7.43
2019-02-24T13:00:09.546Z,4.90
2019-02-24T13:01:15.212Z,8.33
2019-02-24T13:02:20.544Z,6.20
2019-02-24T13:03:25.802Z,5.33
2019-02-24T13:04:31.042Z,4.97
2019-02-24T13:05:36.305Z,4.27
2019-02-24T13:06:41.441Z,4.23
2019-02-24T13:07:46.980Z,5.33
2019-02-24T13:08:52.214Z,5.50
2019-02-24T13:09:57.514Z,5.70
2019-02-24T13:11:02.623Z,4.20
2019-02-24T13:12:07.884Z,4.67
2019-02-24T13:13:13.487Z,3.83
2019-02-24T13:14:19.100Z,4.03
2019-02-24T13:15:24.242Z,6.70
2019-02-24T13:16:29.418Z,4.63
2019-02-24T13:17:35.000Z,4.53
2019-02-24T13:18:40.232Z,4.00
2019-02-24T13:19:45.450Z,5.93
2019-02-24T13:20:50.900Z,3.87
2019-02-24T13:21:56.173Z,5.37
2019-02-24T13:23:04.765Z,5.37
2019-02-24T13:24:09.927Z,3.10
2019-02-24T13:25:16.807Z,5.00
2019-02-24T13:26:22.100Z,5.17
2019-02-24T13:27:27.271Z,5.50
2019-02-24T13:28:34.041Z,3.73
2019-02-24T13:29:39.177Z,3.60
2019-02-24T13:30:46.677Z,4.73
2019-02-24T13:31:54.040Z,5.30
2019-02-24T13:32:59.578Z,5.03
2019-02-24T13:34:06.497Z,7.23
2019-02-24T13:35:11.860Z,4.73
2019-02-24T13:36:17.043Z,5.43
2019-02-24T13:37:22.646Z,3.97
2019-02-24T13:38:29.391Z,5.10
2019-02-24T13:39:34.626Z,6.10
2019-02-24T13:40:39.889Z,4.83
2019-02-24T13:41:47.904Z,4.93
2019-02-24T13:42:53.167Z,4.20
2019-02-24T13:43:58.415Z,4.10
2019-02-24T13:45:03.735Z,5.83
2019-02-24T13:46:10.074Z,7.57
2019-02-24T13:47:15.318Z,7.10
2019-02-24T13:48:20.545Z,6.63
2019-02-24T13:49:25.801Z,5.53
2019-02-24T13:50:31.057Z,4.90
2019-02-24T13:51:36.294Z,5.13
2019-02-24T13:52:41.631Z,5.73
2019-02-24T13:53:46.821Z,5.07
2019-02-24T13:54:52.073Z,7.03
2019-02-24T13:55:58.396Z,6.63
2019-02-24T13:57:04.157Z,5.83
2019-02-24T13:58:09.703Z,5.30
2019-02-24T13:59:14.889Z,6.57
2019-02-24T14:00:20.132Z,5.07
2019-02-24T14:01:25.734Z,6.17
2019-02-24T14:02:31.298Z,7.53
2019-02-24T14:03:39.482Z,6.53
2019-02-24T14:04:44.972Z,7.53
2019-02-24T14:05:50.488Z,7.60
2019-02-24T14:06:55.664Z,7.17
2019-02-24T14:08:00.935Z,6.67
2019-02-24T14:09:07.327Z,7.03
2019-02-24T14:10:13.263Z,6.10
2019-02-24T14:11:18.724Z,6.77
2019-02-24T14:12:24.163Z,8.33
2019-02-24T14:13:29.408Z,5.00
2019-02-24T14:14:35.046Z,5.47
2019-02-24T14:15:40.387Z,6.23
2019-02-24T14:16:45.717Z,7.23
2019-02-24T14:17:52.468Z,5.90
2019-02-24T14:18:57.698Z,5.63
2019-02-24T14:20:03.048Z,8.67
2019-02-24T14:21:08.331Z,6.93
2019-02-24T14:22:13.604Z,5.93